Time;durP1;ratioP1;P1;durP2;ratioP2;P2;SDS_P1;SDS_P2;PMS_P1;PMS_P2;Temp;Humidity;BMP_temperature;BMP_pressure;BME280_temperature;BME280_humidity;BME280_pressure;Samples;Min_cycle;Max_cycle;Signal;HPM_P1;HPM_P2
2021/08/21 00:02:11;;;;;;;2.83;2.13;;;;;;;;;;5031349;28;20022;-76
2021/08/21 00:04:37;;;;;;;2.75;2.38;;;;;;;;;;5030692;28;20034;-76
2021/08/21 00:07:06;;;;;;;4.28;2.40;;;;;;;;;;5031115;28;20037;-77
2021/08/21 00:09:34;;;;;;;3.08;2.38;;;;;;;;;;5031526;28;20497;-75
2021/08/21 00:12:00;;;;;;;3.03;2.30;;;;;;;;;;5031230;28;20079;-75
2021/08/21 00:14:26;;;;;;;2.40;2.10;;;;;;;;;;5031908;28;20112;-75
2021/08/21 00:16:52;;;;;;;4.13;2.30;;;;;;;;;;5030458;28;20022;-75
2021/08/21 00:19:18;;;;;;;2.55;2.30;;;;;;;;;;5031604;28;20021;-76
2021/08/21 00:21:45;;;;;;;2.22;2.03;;;;;;;;;;5031354;28;20508;-75
2021/08/21 00:24:11;;;;;;;2.58;2.03;;;;;;;;;;5031377;28;20489;-75
2021/08/21 00:26:37;;;;;;;3.50;2.17;;;;;;;;;;5031865;28;20436;-75
2021/08/21 00:29:03;;;;;;;3.17;2.45;;;;;;;;;;5031504;28;20439;-75
2021/08/21 00:31:30;;;;;;;2.50;2.10;;;;;;;;;;5030966;28;20036;-75
2021/08/21 00:33:56;;;;;;;3.38;2.13;;;;;;;;;;5031701;28;20036;-75
2021/08/21 00:36:22;;;;;;;3.17;2.10;;;;;;;;;;5031296;28;20030;-75
2021/08/21 00:38:48;;;;;;;4.43;2.70;;;;;;;;;;5031431;28;20052;-75
2021/08/21 00:41:14;;;;;;;3.55;1.80;;;;;;;;;;5032704;28;20021;-75
2021/08/21 00:43:42;;;;;;;2.88;2.60;;;;;;;;;;5035234;28;20026;-75
2021/08/21 00:46:08;;;;;;;2.63;2.28;;;;;;;;;;5035301;28;20384;-75
2021/08/21 00:48:34;;;;;;;2.20;2.00;;;;;;;;;;5034571;28;20056;-75
2021/08/21 00:51:01;;;;;;;2.53;2.28;;;;;;;;;;5034880;28;20034;-75
2021/08/21 00:53:28;;;;;;;3.13;2.17;;;;;;;;;;5034901;28;20404;-75
2021/08/21 00:55:54;;;;;;;2.13;1.90;;;;;;;;;;5034369;28;20026;-75
2021/08/21 00:58:21;;;;;;;2.55;2.13;;;;;;;;;;5034802;28;20531;-75
2021/08/21 01:00:48;;;;;;;3.28;2.35;;;;;;;;;;5034696;28;20022;-75
2021/08/21 01:03:14;;;;;;;2.35;2.15;;;;;;;;;;5034748;28;20115;-75
2021/08/21 01:05:41;;;;;;;2.20;2.00;;;;;;;;;;5031954;28;20026;-75
2021/08/21 01:08:07;;;;;;;2.38;2.17;;;;;;;;;;5034482;28;20021;-75
2021/08/21 01:10:33;;;;;;;2.70;2.25;;;;;;;;;;5034653;28;20370;-75
2021/08/21 01:13:00;;;;;;;3.00;2.13;;;;;;;;;;5035005;28;20105;-75
2021/08/21 01:15:26;;;;;;;2.47;2.28;;;;;;;;;;5034869;28;20480;-75
2021/08/21 01:17:53;;;;;;;2.53;2.33;;;;;;;;;;5034571;28;20021;-75
2021/08/21 01:20:19;;;;;;;2.47;2.17;;;;;;;;;;5034793;28;20025;-75
2021/08/21 01:22:46;;;;;;;2.60;2.40;;;;;;;;;;5034544;28;20427;-75
2021/08/21 01:25:14;;;;;;;3.85;2.08;;;;;;;;;;5034450;28;20017;-75
2021/08/21 01:27:40;;;;;;;2.83;2.53;;;;;;;;;;5033925;28;20022;-75
2021/08/21 01:30:06;;;;;;;3.10;2.20;;;;;;;;;;5033962;28;20041;-75
2021/08/21 01:32:33;;;;;;;3.13;2.42;;;;;;;;;;5034218;28;20026;-75
2021/08/21 01:34:59;;;;;;;2.20;2.00;;;;;;;;;;5034095;28;20033;-76
2021/08/21 01:37:26;;;;;;;2.20;1.98;;;;;;;;;;5034176;28;20049;-76
2021/08/21 01:39:53;;;;;;;2.55;2.20;;;;;;;;;;5033833;28;20032;-76
2021/08/21 01:42:20;;;;;;;3.22;2.28;;;;;;;;;;5033441;28;20057;-76
2021/08/21 01:44:46;;;;;;;2.55;2.08;;;;;;;;;;5034135;28;20120;-76
2021/08/21 01:47:12;;;;;;;2.63;2.40;;;;;;;;;;5032468;28;20063;-76
2021/08/21 01:49:39;;;;;;;3.00;2.38;;;;;;;;;;5033538;28;20516;-76
2021/08/21 01:52:06;;;;;;;3.03;2.17;;;;;;;;;;5032214;28;20036;-76
2021/08/21 01:54:33;;;;;;;2.17;2.00;;;;;;;;;;5034092;28;20453;-76
2021/08/21 01:57:00;;;;;;;2.65;2.00;;;;;;;;;;5033771;28;20029;-76
2021/08/21 01:59:26;;;;;;;4.82;2.10;;;;;;;;;;5033023;28;20029;-76
2021/08/21 02:01:53;;;;;;;2.88;2.00;;;;;;;;;;5033590;28;20035;-76
2021/08/21 02:04:20;;;;;;;2.20;1.90;;;;;;;;;;5033846;28;20021;-76
2021/08/21 02:06:46;;;;;;;2.63;2.42;;;;;;;;;;5033789;28;20048;-76
2021/08/21 02:09:13;;;;;;;2.92;2.00;;;;;;;;;;5032192;28;20088;-76
2021/08/21 02:11:39;;;;;;;2.70;2.20;;;;;;;;;;5032955;28;20030;-76
2021/08/21 02:14:05;;;;;;;1.92;1.73;;;;;;;;;;5033655;28;20025;-77
2021/08/21 02:16:32;;;;;;;2.28;2.08;;;;;;;;;;5033675;28;20030;-77
2021/08/21 02:18:58;;;;;;;2.28;2.08;;;;;;;;;;5033794;28;20101;-77
2021/08/21 02:21:24;;;;;;;2.85;2.10;;;;;;;;;;5031364;28;20022;-77
2021/08/21 02:23:51;;;;;;;2.58;1.98;;;;;;;;;;5033476;28;20026;-76
2021/08/21 02:26:17;;;;;;;2.50;2.08;;;;;;;;;;5033977;28;20481;-77
2021/08/21 02:28:43;;;;;;;2.20;2.00;;;;;;;;;;5033504;28;20025;-77
2021/08/21 02:31:10;;;;;;;5.00;2.20;;;;;;;;;;5032083;28;20040;-77
2021/08/21 02:33:36;;;;;;;1.88;1.65;;;;;;;;;;5033216;28;20100;-76
2021/08/21 02:36:02;;;;;;;3.05;2.20;;;;;;;;;;5032953;28;20032;-77
2021/08/21 02:38:28;;;;;;;2.28;2.08;;;;;;;;;;5033281;28;20025;-77
2021/08/21 02:40:54;;;;;;;3.60;2.00;;;;;;;;;;5032791;28;20029;-77
2021/08/21 02:43:20;;;;;;;2.47;2.08;;;;;;;;;;5031659;28;21730;-77
2021/08/21 02:45:47;;;;;;;2.88;2.03;;;;;;;;;;5033030;28;20053;-77
2021/08/21 02:48:15;;;;;;;2.67;2.00;;;;;;;;;;5032681;28;20018;-77
2021/08/21 02:50:41;;;;;;;2.28;1.98;;;;;;;;;;5032685;28;20029;-77
2021/08/21 02:53:07;;;;;;;2.13;1.92;;;;;;;;;;5032969;28;20024;-76
2021/08/21 02:55:34;;;;;;;3.08;2.08;;;;;;;;;;5032620;28;20099;-77
2021/08/21 02:58:00;;;;;;;2.95;2.10;;;;;;;;;;5032653;28;20024;-76
2021/08/21 03:00:26;;;;;;;2.45;2.20;;;;;;;;;;5032466;28;20060;-77
2021/08/21 03:02:52;;;;;;;2.47;2.05;;;;;;;;;;5032225;28;20025;-75
2021/08/21 03:05:18;;;;;;;3.38;1.80;;;;;;;;;;5031958;28;20033;-75
2021/08/21 03:07:44;;;;;;;2.90;1.95;;;;;;;;;;5032744;28;20096;-75
2021/08/21 03:10:10;;;;;;;2.00;1.80;;;;;;;;;;5032599;28;20033;-75
2021/08/21 03:12:37;;;;;;;2.22;2.03;;;;;;;;;;5032168;28;20113;-75
2021/08/21 03:15:03;;;;;;;2.20;1.80;;;;;;;;;;5032195;28;20060;-75
2021/08/21 03:17:29;;;;;;;2.28;2.08;;;;;;;;;;5030981;28;20543;-75
2021/08/21 03:19:55;;;;;;;2.10;1.90;;;;;;;;;;5032469;28;20417;-75
2021/08/21 03:22:21;;;;;;;2.47;1.70;;;;;;;;;;5031660;28;20033;-75
2021/08/21 03:24:48;;;;;;;2.42;1.85;;;;;;;;;;5032381;28;20025;-75
2021/08/21 03:27:14;;;;;;;2.08;1.70;;;;;;;;;;5032518;28;20660;-75
2021/08/21 03:29:40;;;;;;;2.08;1.88;;;;;;;;;;5032500;28;20036;-75
2021/08/21 03:32:06;;;;;;;2.97;2.03;;;;;;;;;;5031683;28;20029;-75
2021/08/21 03:34:34;;;;;;;1.95;1.80;;;;;;;;;;5030929;28;20569;-75
2021/08/21 03:37:00;;;;;;;2.40;2.17;;;;;;;;;;5031396;28;20104;-75
2021/08/21 03:39:26;;;;;;;2.28;1.92;;;;;;;;;;5032213;28;20044;-75
2021/08/21 03:41:52;;;;;;;2.88;2.40;;;;;;;;;;5031591;28;20014;-75
2021/08/21 03:44:18;;;;;;;2.63;1.98;;;;;;;;;;5031858;28;20026;-75
2021/08/21 03:46:44;;;;;;;2.30;2.10;;;;;;;;;;5030802;28;20136;-75
2021/08/21 03:49:10;;;;;;;2.65;2.17;;;;;;;;;;5031658;28;20535;-75
2021/08/21 03:51:36;;;;;;;2.10;1.90;;;;;;;;;;5031428;28;20389;-75
2021/08/21 03:54:02;;;;;;;2.70;2.38;;;;;;;;;;5032083;28;20029;-75
2021/08/21 03:56:28;;;;;;;2.60;2.00;;;;;;;;;;5031836;28;20041;-75
2021/08/21 03:58:55;;;;;;;2.42;1.95;;;;;;;;;;5030666;28;20022;-75
2021/08/21 04:01:21;;;;;;;4.25;2.10;;;;;;;;;;5031090;28;20562;-75
2021/08/21 04:03:47;;;;;;;4.20;1.90;;;;;;;;;;5030662;28;20025;-75
2021/08/21 04:06:13;;;;;;;2.50;1.85;;;;;;;;;;5030543;28;20029;-75
2021/08/21 04:08:39;;;;;;;2.10;1.90;;;;;;;;;;5031400;28;20104;-75
2021/08/21 04:11:05;;;;;;;1.70;1.60;;;;;;;;;;5030411;28;20411;-75
2021/08/21 04:13:31;;;;;;;1.92;1.80;;;;;;;;;;5031292;28;20067;-75
2021/08/21 04:15:57;;;;;;;2.10;1.90;;;;;;;;;;5034648;28;20025;-75
2021/08/21 04:18:23;;;;;;;1.98;1.80;;;;;;;;;;5035897;28;20395;-75
2021/08/21 04:20:49;;;;;;;2.25;1.75;;;;;;;;;;5033854;28;20032;-75
2021/08/21 04:23:15;;;;;;;2.22;1.75;;;;;;;;;;5034045;28;20412;-75
2021/08/21 04:25:41;;;;;;;2.00;1.80;;;;;;;;;;5035738;28;20022;-75
2021/08/21 04:28:08;;;;;;;3.60;1.95;;;;;;;;;;5035615;28;20076;-75
2021/08/21 04:30:34;;;;;;;1.80;1.70;;;;;;;;;;5035601;28;20092;-75
2021/08/21 04:33:00;;;;;;;1.98;1.60;;;;;;;;;;5034188;28;20512;-75
2021/08/21 04:35:26;;;;;;;2.80;1.98;;;;;;;;;;5035224;28;20025;-75
2021/08/21 04:37:52;;;;;;;2.13;1.80;;;;;;;;;;5035527;28;20456;-75
2021/08/21 04:40:20;;;;;;;3.05;2.25;;;;;;;;;;5033360;28;20029;-75
2021/08/21 04:42:46;;;;;;;3.38;2.10;;;;;;;;;;5035020;28;20379;-75
2021/08/21 04:45:13;;;;;;;1.88;1.77;;;;;;;;;;5034875;28;20029;-75
2021/08/21 04:47:39;;;;;;;2.40;2.03;;;;;;;;;;5035118;28;20029;-75
2021/08/21 04:50:06;;;;;;;2.30;1.63;;;;;;;;;;5034731;28;20123;-75
2021/08/21 04:52:32;;;;;;;2.17;1.90;;;;;;;;;;5034778;28;20030;-75
2021/08/21 04:54:58;;;;;;;2.35;2.15;;;;;;;;;;5035283;28;20416;-75
2021/08/21 04:57:24;;;;;;;2.53;2.08;;;;;;;;;;5035105;28;20060;-75
2021/08/21 04:59:50;;;;;;;2.60;2.20;;;;;;;;;;5033827;28;20540;-75
2021/08/21 05:02:16;;;;;;;3.72;2.10;;;;;;;;;;5034404;28;20029;-75
2021/08/21 05:04:45;;;;;;;2.22;1.80;;;;;;;;;;5034525;28;20021;-75
2021/08/21 05:07:11;;;;;;;2.30;2.05;;;;;;;;;;5034669;28;20029;-75
2021/08/21 05:09:37;;;;;;;3.58;2.17;;;;;;;;;;5034762;28;20488;-75
2021/08/21 05:12:04;;;;;;;2.22;1.98;;;;;;;;;;5033660;28;20116;-75
2021/08/21 05:14:30;;;;;;;2.40;1.70;;;;;;;;;;5034233;28;20033;-75
2021/08/21 05:16:56;;;;;;;2.30;2.10;;;;;;;;;;5034761;28;20033;-75
2021/08/21 05:19:33;;;;;;;2.15;1.83;;;;;;;;;;5034676;28;20049;-75
2021/08/21 05:22:20;;;;;;;2.83;2.05;;;;;;;;;;5034074;28;20484;-75
2021/08/21 05:24:45;;;;;;;2.85;2.28;;;;;;;;;;5034105;28;20546;-75
2021/08/21 05:27:11;;;;;;;5.20;2.20;;;;;;;;;;5033986;28;20017;-75
2021/08/21 05:29:37;;;;;;;2.15;1.95;;;;;;;;;;5034315;28;20026;-75
2021/08/21 05:32:05;;;;;;;2.55;2.03;;;;;;;;;;5032524;28;20029;-75
2021/08/21 05:34:31;;;;;;;2.05;1.85;;;;;;;;;;5034411;28;20029;-75
2021/08/21 05:36:57;;;;;;;2.50;2.30;;;;;;;;;;5032927;28;20027;-75
2021/08/21 05:39:24;;;;;;;3.25;2.00;;;;;;;;;;5033959;28;20030;-75
2021/08/21 05:41:50;;;;;;;2.08;1.85;;;;;;;;;;5032320;28;20021;-75
2021/08/21 05:44:16;;;;;;;2.00;1.80;;;;;;;;;;5033385;28;20040;-75
2021/08/21 05:46:42;;;;;;;2.28;1.98;;;;;;;;;;5032778;28;20026;-75
2021/08/21 05:49:08;;;;;;;2.30;2.10;;;;;;;;;;5032427;28;20053;-75
2021/08/21 05:51:34;;;;;;;2.42;1.98;;;;;;;;;;5032076;28;20036;-75
2021/08/21 05:54:00;;;;;;;2.22;2.03;;;;;;;;;;5033640;28;20120;-75
2021/08/21 05:56:26;;;;;;;3.85;1.95;;;;;;;;;;5033963;28;20025;-75
2021/08/21 05:58:52;;;;;;;2.13;1.80;;;;;;;;;;5032529;28;20025;-75
2021/08/21 06:01:18;;;;;;;1.90;1.67;;;;;;;;;;5033083;28;20381;-75
2021/08/21 06:03:45;;;;;;;2.13;1.90;;;;;;;;;;5033238;28;20049;-75
2021/08/21 06:06:11;;;;;;;2.50;1.90;;;;;;;;;;5033876;28;20036;-75
2021/08/21 06:08:38;;;;;;;4.53;2.10;;;;;;;;;;5033430;28;20030;-75
2021/08/21 06:11:04;;;;;;;2.35;2.00;;;;;;;;;;5031944;28;20037;-75
2021/08/21 06:13:30;;;;;;;2.05;1.85;;;;;;;;;;5031988;28;20064;-75
2021/08/21 06:15:56;;;;;;;2.17;1.98;;;;;;;;;;5033428;28;20033;-75
2021/08/21 06:18:22;;;;;;;2.08;1.95;;;;;;;;;;5031430;28;20022;-75
2021/08/21 06:20:48;;;;;;;2.35;2.00;;;;;;;;;;5033061;28;20087;-75
2021/08/21 06:23:14;;;;;;;2.58;2.08;;;;;;;;;;5033314;28;20029;-75
2021/08/21 06:25:41;;;;;;;2.03;1.80;;;;;;;;;;5033057;28;20032;-75
2021/08/21 06:28:07;;;;;;;2.10;1.90;;;;;;;;;;5031857;28;20488;-75
2021/08/21 06:30:33;;;;;;;1.92;1.75;;;;;;;;;;5033460;28;20032;-75
2021/08/21 06:32:59;;;;;;;1.95;1.70;;;;;;;;;;5033121;28;20086;-75
2021/08/21 06:35:25;;;;;;;2.72;2.05;;;;;;;;;;5032775;28;20029;-75
2021/08/21 06:37:51;;;;;;;1.70;1.60;;;;;;;;;;5031973;28;20029;-75
2021/08/21 06:40:17;;;;;;;2.38;1.73;;;;;;;;;;5033440;28;20400;-75
2021/08/21 06:42:43;;;;;;;3.13;2.08;;;;;;;;;;5032979;28;20460;-75
2021/08/21 06:45:10;;;;;;;2.03;1.83;;;;;;;;;;5032538;28;20103;-76
2021/08/21 06:47:36;;;;;;;2.03;1.83;;;;;;;;;;5031559;28;20123;-75
2021/08/21 06:50:05;;;;;;;2.00;1.80;;;;;;;;;;5030850;28;20052;-75
2021/08/21 06:52:31;;;;;;;2.13;1.58;;;;;;;;;;5032744;28;20052;-75
2021/08/21 06:54:57;;;;;;;2.67;2.00;;;;;;;;;;5031155;28;20069;-75
2021/08/21 06:57:23;;;;;;;2.25;1.80;;;;;;;;;;5032638;28;20076;-75
2021/08/21 06:59:49;;;;;;;3.75;2.00;;;;;;;;;;5032400;28;20036;-75
2021/08/21 07:02:15;;;;;;;2.20;2.00;;;;;;;;;;5030463;28;20052;-75
2021/08/21 07:04:41;;;;;;;1.98;1.77;;;;;;;;;;5032610;28;20029;-75
2021/08/21 07:07:08;;;;;;;2.05;1.83;;;;;;;;;;5032333;28;20026;-76
2021/08/21 07:09:34;;;;;;;2.45;2.08;;;;;;;;;;5032849;28;20053;-75
2021/08/21 07:12:01;;;;;;;2.05;1.80;;;;;;;;;;5031912;28;20033;-75
2021/08/21 07:14:27;;;;;;;2.45;1.80;;;;;;;;;;5032154;28;20261;-75
2021/08/21 07:16:53;;;;;;;2.50;2.00;;;;;;;;;;5032050;28;20078;-75
2021/08/21 07:19:19;;;;;;;3.00;2.22;;;;;;;;;;5032179;28;20090;-76
2021/08/21 07:21:45;;;;;;;2.40;2.13;;;;;;;;;;5031557;28;20018;-75
2021/08/21 07:24:11;;;;;;;2.28;1.77;;;;;;;;;;5032276;28;20028;-75
2021/08/21 07:26:37;;;;;;;2.50;2.30;;;;;;;;;;5032477;28;20111;-75
2021/08/21 07:29:03;;;;;;;2.65;1.85;;;;;;;;;;5031976;28;20032;-75
2021/08/21 07:31:30;;;;;;;2.05;1.67;;;;;;;;;;5032033;28;20400;-75
2021/08/21 07:33:56;;;;;;;2.10;1.90;;;;;;;;;;5032064;28;20029;-75
2021/08/21 07:36:22;;;;;;;2.47;2.20;;;;;;;;;;5032233;28;20022;-75
2021/08/21 07:38:48;;;;;;;2.35;2.00;;;;;;;;;;5032530;28;20083;-75
2021/08/21 07:41:14;;;;;;;2.63;2.03;;;;;;;;;;5031624;28;20025;-76
2021/08/21 07:43:40;;;;;;;1.88;1.77;;;;;;;;;;5030977;28;20058;-75
2021/08/21 07:46:07;;;;;;;2.78;2.10;;;;;;;;;;5030531;28;20029;-75
2021/08/21 07:48:33;;;;;;;2.15;1.90;;;;;;;;;;5030970;28;20033;-75
2021/08/21 07:50:59;;;;;;;2.72;2.10;;;;;;;;;;5036235;28;20487;-75
2021/08/21 07:53:25;;;;;;;2.28;2.08;;;;;;;;;;5035493;28;20049;-76
2021/08/21 07:55:51;;;;;;;2.42;2.00;;;;;;;;;;5035618;28;20147;-75
2021/08/21 07:58:17;;;;;;;2.30;2.03;;;;;;;;;;5035953;28;20021;-75
2021/08/21 08:00:43;;;;;;;2.45;2.00;;;;;;;;;;5035826;28;20032;-75
2021/08/21 08:03:14;;;;;;;3.00;2.17;;;;;;;;;;5035750;28;20033;-75
2021/08/21 08:05:40;;;;;;;2.58;2.08;;;;;;;;;;5035596;28;20033;-75
2021/08/21 08:08:06;;;;;;;2.75;2.03;;;;;;;;;;5036048;28;20021;-75
2021/08/21 08:10:33;;;;;;;3.72;2.08;;;;;;;;;;5036003;28;20385;-75
2021/08/21 08:12:59;;;;;;;2.25;2.00;;;;;;;;;;5035663;28;20017;-75
2021/08/21 08:15:25;;;;;;;2.15;1.95;;;;;;;;;;5035516;28;20408;-77
2021/08/21 08:17:51;;;;;;;2.60;2.17;;;;;;;;;;5035621;28;20026;-77
2021/08/21 08:20:17;;;;;;;2.47;2.15;;;;;;;;;;5035636;28;20064;-77
2021/08/21 08:22:43;;;;;;;2.47;2.10;;;;;;;;;;5035960;28;20032;-77
2021/08/21 08:25:10;;;;;;;2.75;2.10;;;;;;;;;;5033937;28;20029;-77
2021/08/21 08:27:36;;;;;;;2.92;2.25;;;;;;;;;;5035323;28;20036;-77
2021/08/21 08:30:04;;;;;;;3.03;2.22;;;;;;;;;;5035454;28;20029;-77
2021/08/21 08:32:30;;;;;;;2.58;2.00;;;;;;;;;;5035577;28;20036;-77
2021/08/21 08:34:56;;;;;;;2.63;2.15;;;;;;;;;;5035750;28;20524;-77
2021/08/21 08:37:22;;;;;;;2.63;2.25;;;;;;;;;;5035095;28;20071;-77
2021/08/21 08:39:48;;;;;;;2.85;2.30;;;;;;;;;;5035302;28;20557;-77
2021/08/21 08:42:15;;;;;;;3.22;2.30;;;;;;;;;;5034830;28;20411;-77
2021/08/21 08:44:46;;;;;;;2.28;1.90;;;;;;;;;;5035226;28;20018;-77
2021/08/21 08:47:13;;;;;;;2.40;2.20;;;;;;;;;;5035203;28;20029;-77
2021/08/21 08:49:40;;;;;;;4.97;2.20;;;;;;;;;;5034900;28;20048;-77
2021/08/21 08:52:07;;;;;;;2.63;2.00;;;;;;;;;;5034511;28;20036;-77
2021/08/21 08:54:33;;;;;;;2.20;2.00;;;;;;;;;;5035446;28;20021;-77
2021/08/21 08:56:59;;;;;;;2.28;1.90;;;;;;;;;;5035054;28;20025;-77
2021/08/21 08:59:25;;;;;;;5.35;1.95;;;;;;;;;;5034407;28;20075;-77
2021/08/21 09:01:51;;;;;;;2.55;2.30;;;;;;;;;;5033876;28;20120;-77
2021/08/21 09:04:19;;;;;;;2.25;2.03;;;;;;;;;;5034716;28;20025;-77
2021/08/21 09:06:45;;;;;;;2.53;2.25;;;;;;;;;;5034916;28;20032;-77
2021/08/21 09:09:15;;;;;;;2.75;2.25;;;;;;;;;;5034608;28;20036;-77
2021/08/21 09:11:43;;;;;;;2.33;2.10;;;;;;;;;;5034613;28;20504;-77
2021/08/21 09:14:17;;;;;;;2.92;2.50;;;;;;;;;;5033273;28;20045;-77
2021/08/21 09:16:43;;;;;;;2.47;2.15;;;;;;;;;;5033161;28;20451;-77
2021/08/21 09:19:09;;;;;;;3.00;2.22;;;;;;;;;;5034714;28;20404;-77
2021/08/21 09:21:35;;;;;;;3.33;2.20;;;;;;;;;;5033067;28;20384;-77
2021/08/21 09:24:01;;;;;;;4.75;2.72;;;;;;;;;;5034530;28;20526;-77
2021/08/21 09:26:31;;;;;;;2.88;2.33;;;;;;;;;;5034934;28;20041;-77
2021/08/21 09:28:59;;;;;;;3.03;2.30;;;;;;;;;;5033328;28;20035;-77
2021/08/21 09:31:34;;;;;;;3.22;2.22;;;;;;;;;;5033402;28;20025;-77
2021/08/21 09:34:00;;;;;;;2.55;2.17;;;;;;;;;;5034643;28;20053;-77
2021/08/21 09:36:34;;;;;;;2.72;2.20;;;;;;;;;;5034107;28;20029;-77
2021/08/21 09:39:01;;;;;;;2.72;2.42;;;;;;;;;;5034084;28;20092;-77
2021/08/21 09:41:27;;;;;;;2.50;2.30;;;;;;;;;;5033874;28;20025;-77
2021/08/21 09:44:06;;;;;;;3.08;2.30;;;;;;;;;;5033930;28;20084;-77
2021/08/21 09:46:32;;;;;;;5.93;2.78;;;;;;;;;;5034217;28;20562;-77
2021/08/21 09:49:01;;;;;;;2.50;2.22;;;;;;;;;;5033722;28;20492;-77
2021/08/21 09:51:30;;;;;;;3.15;2.17;;;;;;;;;;5033690;28;20041;-77
2021/08/21 09:54:01;;;;;;;2.67;2.20;;;;;;;;;;5034054;28;20481;-77
2021/08/21 09:56:34;;;;;;;3.13;2.17;;;;;;;;;;5033869;28;20032;-77
2021/08/21 09:59:01;;;;;;;2.83;2.20;;;;;;;;;;5033897;28;20079;-77
2021/08/21 10:01:28;;;;;;;2.97;2.22;;;;;;;;;;5033145;28;20045;-75
2021/08/21 10:03:54;;;;;;;2.75;2.40;;;;;;;;;;5033204;28;20030;-75
2021/08/21 10:06:20;;;;;;;2.67;2.33;;;;;;;;;;5033443;28;20032;-75
2021/08/21 10:08:48;;;;;;;4.78;2.40;;;;;;;;;;5033472;28;20030;-75
2021/08/21 10:11:15;;;;;;;2.22;2.03;;;;;;;;;;5033242;28;20484;-76
2021/08/21 10:13:42;;;;;;;3.08;2.30;;;;;;;;;;5031023;28;20030;-75
2021/08/21 10:16:09;;;;;;;3.22;2.40;;;;;;;;;;5033356;28;20072;-75
2021/08/21 10:18:36;;;;;;;2.50;2.10;;;;;;;;;;5033412;28;20473;-76
2021/08/21 10:21:03;;;;;;;5.95;2.25;;;;;;;;;;5031916;28;20476;-75
2021/08/21 10:23:29;;;;;;;3.00;2.40;;;;;;;;;;5033500;28;20369;-75
2021/08/21 10:25:58;;;;;;;2.85;2.25;;;;;;;;;;5032348;28;20029;-75
2021/08/21 10:28:24;;;;;;;3.50;2.50;;;;;;;;;;5031519;28;20068;-75
2021/08/21 10:30:50;;;;;;;4.05;2.47;;;;;;;;;;5033099;28;20033;-75
2021/08/21 10:33:17;;;;;;;2.70;2.25;;;;;;;;;;5033333;28;20026;-75
2021/08/21 10:35:45;;;;;;;3.17;2.60;;;;;;;;;;5032664;28;20503;-75
2021/08/21 10:38:33;;;;;;;4.43;2.70;;;;;;;;;;5032860;28;20029;-75
2021/08/21 10:41:21;;;;;;;3.88;2.55;;;;;;;;;;5032460;28;20022;-75
2021/08/21 10:43:52;;;;;;;2.63;2.38;;;;;;;;;;5032675;28;20468;-75
2021/08/21 10:46:30;;;;;;;3.75;2.40;;;;;;;;;;5032861;28;20021;-75
2021/08/21 10:48:57;;;;;;;3.03;2.55;;;;;;;;;;5032632;28;20413;-75
2021/08/21 10:51:42;;;;;;;4.13;2.47;;;;;;;;;;5032303;28;20032;-75
2021/08/21 10:54:27;;;;;;;3.50;2.65;;;;;;;;;;5032720;28;20030;-75
2021/08/21 10:56:57;;;;;;;2.88;2.60;;;;;;;;;;5031374;28;20317;-75
2021/08/21 10:59:52;;;;;;;3.72;2.75;;;;;;;;;;5032487;28;20028;-75
2021/08/21 11:02:21;;;;;;;4.57;2.53;;;;;;;;;;5015347;28;20120;-75
2021/08/21 11:04:47;;;;;;;3.22;2.42;;;;;;;;;;5031299;28;20136;-75
2021/08/21 11:07:32;;;;;;;4.18;2.55;;;;;;;;;;5030592;28;20032;-75
2021/08/21 11:10:18;;;;;;;3.42;2.88;;;;;;;;;;5032223;28;20404;-75
2021/08/21 11:12:48;;;;;;;3.72;2.70;;;;;;;;;;5032313;28;20056;-75
2021/08/21 11:15:20;;;;;;;4.78;2.72;;;;;;;;;;5032173;28;20041;-75
2021/08/21 11:17:46;;;;;;;3.88;2.50;;;;;;;;;;5032351;28;20729;-75
2021/08/21 11:20:26;;;;;;;3.22;2.80;;;;;;;;;;5030934;28;20112;-76
2021/08/21 11:23:07;;;;;;;4.60;3.33;;;;;;;;;;5032356;28;20022;-75
2021/08/21 11:25:37;;;;;;;4.63;3.10;;;;;;;;;;5030615;28;20025;-75
2021/08/21 11:28:07;;;;;;;4.78;2.60;;;;;;;;;;5032122;28;20022;-75
2021/08/21 11:30:37;;;;;;;5.97;2.80;;;;;;;;;;5032188;28;20025;-75
2021/08/21 11:33:06;;;;;;;3.75;3.00;;;;;;;;;;5032361;28;20484;-75
2021/08/21 11:35:37;;;;;;;4.60;3.28;;;;;;;;;;5030933;28;20412;-75
2021/08/21 11:38:05;;;;;;;3.60;2.72;;;;;;;;;;5031859;28;20032;-75
2021/08/21 11:40:33;;;;;;;4.38;3.42;;;;;;;;;;5031233;28;20025;-75
2021/08/21 11:43:00;;;;;;;3.17;2.85;;;;;;;;;;5030751;28;20025;-75
2021/08/21 11:45:26;;;;;;;5.13;3.53;;;;;;;;;;5012245;28;20048;-75
2021/08/21 11:47:55;;;;;;;5.03;2.97;;;;;;;;;;5012468;28;20053;-75
2021/08/21 11:50:24;;;;;;;3.33;2.72;;;;;;;;;;5011883;28;20081;-75
2021/08/21 11:52:51;;;;;;;3.55;3.20;;;;;;;;;;5043951;28;20026;-75
2021/08/21 11:55:20;;;;;;;3.25;2.88;;;;;;;;;;5044099;28;20096;-75
2021/08/21 11:57:47;;;;;;;3.17;2.78;;;;;;;;;;5012112;28;20040;-75
2021/08/21 12:00:18;;;;;;;3.53;2.88;;;;;;;;;;5011861;28;20400;-75
2021/08/21 12:02:48;;;;;;;4.97;3.15;;;;;;;;;;5012162;28;20018;-75
2021/08/21 12:05:24;;;;;;;3.33;3.00;;;;;;;;;;5012172;28;20033;-75
2021/08/21 12:07:50;;;;;;;4.22;3.42;;;;;;;;;;5012030;28;20030;-75
2021/08/21 12:10:16;;;;;;;4.35;2.90;;;;;;;;;;5011900;28;20072;-75
2021/08/21 12:12:43;;;;;;;3.97;3.10;;;;;;;;;;5028884;28;20025;-75
2021/08/21 12:15:09;;;;;;;4.22;3.03;;;;;;;;;;5031536;28;20036;-75
2021/08/21 12:17:35;;;;;;;3.63;3.00;;;;;;;;;;5031938;28;20492;-75
2021/08/21 12:20:02;;;;;;;3.65;3.03;;;;;;;;;;5031930;28;20025;-75
2021/08/21 12:22:29;;;;;;;3.42;3.10;;;;;;;;;;5031315;28;20152;-75
2021/08/21 12:24:57;;;;;;;4.43;3.20;;;;;;;;;;5032169;28;20100;-75
2021/08/21 12:27:27;;;;;;;4.20;2.97;;;;;;;;;;5030518;28;20036;-75
2021/08/21 12:30:12;;;;;;;3.30;3.00;;;;;;;;;;5031439;28;20026;-75
2021/08/21 12:32:39;;;;;;;4.32;3.50;;;;;;;;;;5030463;28;20033;-75
2021/08/21 12:35:09;;;;;;;3.90;3.03;;;;;;;;;;5030347;28;20026;-75
2021/08/21 12:37:35;;;;;;;4.60;3.30;;;;;;;;;;5035216;28;20021;-75
2021/08/21 12:40:09;;;;;;;4.88;3.05;;;;;;;;;;5035008;28;20025;-75
2021/08/21 12:42:35;;;;;;;5.97;3.42;;;;;;;;;;5034104;28;20183;-75
2021/08/21 12:45:16;;;;;;;3.60;3.00;;;;;;;;;;5034409;28;20036;-75
2021/08/21 12:47:43;;;;;;;4.72;3.35;;;;;;;;;;5035217;28;20108;-75
2021/08/21 12:50:10;;;;;;;3.95;3.28;;;;;;;;;;5034722;28;20072;-75
2021/08/21 12:52:36;;;;;;;4.97;3.30;;;;;;;;;;5035367;28;20056;-75
2021/08/21 12:55:06;;;;;;;4.93;3.70;;;;;;;;;;5035089;28;20049;-75
2021/08/21 12:57:35;;;;;;;4.47;3.20;;;;;;;;;;5034810;28;20396;-75
2021/08/21 13:00:07;;;;;;;3.28;2.97;;;;;;;;;;5034826;28;20017;-75
2021/08/21 13:02:40;;;;;;;4.05;3.13;;;;;;;;;;5034463;28;20045;-75
2021/08/21 13:05:07;;;;;;;5.20;3.47;;;;;;;;;;5034930;28;20515;-75
2021/08/21 13:07:43;;;;;;;3.88;3.25;;;;;;;;;;5034510;28;20132;-75
2021/08/21 13:10:10;;;;;;;4.75;3.35;;;;;;;;;;5034613;28;20500;-75
2021/08/21 13:12:36;;;;;;;5.07;3.13;;;;;;;;;;5034394;28;20087;-77
2021/08/21 13:15:03;;;;;;;4.47;3.53;;;;;;;;;;5034492;28;20026;-75
2021/08/21 13:17:29;;;;;;;4.07;3.33;;;;;;;;;;5033925;28;20369;-75
2021/08/21 13:19:55;;;;;;;3.85;3.10;;;;;;;;;;5034562;28;20531;-75
2021/08/21 13:22:21;;;;;;;4.18;3.38;;;;;;;;;;5033712;28;20486;-75
2021/08/21 13:24:47;;;;;;;3.97;3.47;;;;;;;;;;5034473;28;20017;-75
2021/08/21 13:27:13;;;;;;;5.75;3.60;;;;;;;;;;5034293;28;20044;-75
2021/08/21 13:29:39;;;;;;;5.22;3.20;;;;;;;;;;5034299;28;20462;-75
2021/08/21 13:32:05;;;;;;;5.13;3.05;;;;;;;;;;5033502;28;20021;-76
2021/08/21 13:34:31;;;;;;;4.82;3.38;;;;;;;;;;5034223;28;20528;-75
2021/08/21 13:36:57;;;;;;;3.88;3.20;;;;;;;;;;5032839;28;20480;-75
2021/08/21 13:39:23;;;;;;;4.43;3.40;;;;;;;;;;5034124;28;20603;-75
2021/08/21 13:41:49;;;;;;;4.55;3.25;;;;;;;;;;5033490;28;20048;-75
2021/08/21 13:44:15;;;;;;;3.72;3.03;;;;;;;;;;5034184;28;20020;-75
2021/08/21 13:46:41;;;;;;;4.15;3.10;;;;;;;;;;5034279;28;20604;-75
2021/08/21 13:49:07;;;;;;;4.80;3.47;;;;;;;;;;5033209;28;20436;-75
2021/08/21 13:51:35;;;;;;;4.70;3.63;;;;;;;;;;5033510;28;20435;-75
2021/08/21 13:54:01;;;;;;;4.93;3.70;;;;;;;;;;5033752;28;20503;-75
2021/08/21 13:56:27;;;;;;;3.92;3.15;;;;;;;;;;5034059;28;20029;-75
2021/08/21 13:58:53;;;;;;;4.22;3.20;;;;;;;;;;5034037;28;20105;-75
2021/08/21 14:01:19;;;;;;;4.38;3.25;;;;;;;;;;5033225;28;20101;-75
2021/08/21 14:03:45;;;;;;;4.75;3.85;;;;;;;;;;5032462;28;20025;-75
2021/08/21 14:06:11;;;;;;;4.10;3.60;;;;;;;;;;5033424;28;20022;-75
2021/08/21 14:08:38;;;;;;;5.80;3.13;;;;;;;;;;5033760;28;20022;-74
2021/08/21 14:11:04;;;;;;;4.28;3.42;;;;;;;;;;5033481;28;20022;-75
2021/08/21 14:13:31;;;;;;;3.92;3.35;;;;;;;;;;5033235;28;20028;-75
2021/08/21 14:15:57;;;;;;;3.85;3.28;;;;;;;;;;5031985;28;20491;-75
2021/08/21 14:18:23;;;;;;;4.53;3.53;;;;;;;;;;5033534;28;20029;-75
2021/08/21 14:20:49;;;;;;;5.30;3.75;;;;;;;;;;5033054;28;20104;-75
2021/08/21 14:23:15;;;;;;;5.95;3.72;;;;;;;;;;5032872;28;20071;-75
2021/08/21 14:25:41;;;;;;;4.00;3.20;;;;;;;;;;5033652;28;20032;-75
2021/08/21 14:28:08;;;;;;;3.70;3.30;;;;;;;;;;5033017;28;20022;-75
2021/08/21 14:30:35;;;;;;;4.13;3.35;;;;;;;;;;5033561;28;20029;-74
2021/08/21 14:33:01;;;;;;;3.50;3.00;;;;;;;;;;5031660;28;20029;-75
2021/08/21 14:35:27;;;;;;;3.80;3.42;;;;;;;;;;5033037;28;20400;-75
2021/08/21 14:37:53;;;;;;;5.82;3.97;;;;;;;;;;5033220;28;20498;-75
2021/08/21 14:40:20;;;;;;;4.70;3.80;;;;;;;;;;5033234;28;20437;-75
2021/08/21 14:42:46;;;;;;;4.35;3.38;;;;;;;;;;5033043;28;20214;-75
2021/08/21 14:45:12;;;;;;;3.75;3.42;;;;;;;;;;5032924;28;20080;-75